Time;durP1;ratioP1;P1;durP2;ratioP2;P2;SDS_P1;SDS_P2;PMS_P1;PMS_P2;Temp;Humidity;BMP_temperature;BMP_pressure;BME280_temperature;BME280_humidity;BME280_pressure;Samples;Min_cycle;Max_cycle;Signal;HPM_P1;HPM_P2
2023/05/22 00:02:04;;;;;;;4.40;1.70;;;;;;;8.91;100.00;100115.93;105340;1257;62156;-46
2023/05/22 00:04:31;;;;;;;2.60;1.20;;;;;;;8.84;100.00;100115.11;105107;1258;60581;-47
2023/05/22 00:06:57;;;;;;;3.40;1.40;;;;;;;8.78;100.00;100114.83;105797;1259;74628;-47
2023/05/22 00:09:25;;;;;;;3.10;1.70;;;;;;;8.71;100.00;100111.11;105234;1258;68299;-46
2023/05/22 00:11:51;;;;;;;3.70;1.40;;;;;;;8.65;100.00;100112.05;105117;1260;74040;-45
2023/05/22 00:14:18;;;;;;;1.70;1.10;;;;;;;8.63;100.00;100110.86;104998;1260;60963;-45
2023/05/22 00:16:47;;;;;;;2.30;1.10;;;;;;;8.62;100.00;100109.46;105061;1262;59522;-47
2023/05/22 00:19:15;;;;;;;2.00;1.00;;;;;;;8.58;100.00;100108.70;105581;1260;73390;-47
2023/05/22 00:21:42;;;;;;;1.60;1.40;;;;;;;8.55;100.00;100105.60;105254;1257;68718;-45
2023/05/22 00:24:09;;;;;;;2.90;1.30;;;;;;;8.51;100.00;100101.61;105312;1262;72937;-46
2023/05/22 00:26:36;;;;;;;1.50;1.10;;;;;;;8.48;100.00;100101.00;105056;1264;61949;-47
2023/05/22 00:29:04;;;;;;;1.30;1.00;;;;;;;8.45;100.00;100098.77;105090;1264;62483;-47
2023/05/22 00:31:31;;;;;;;3.50;1.20;;;;;;;8.44;100.00;100101.31;104959;1257;71380;-47
2023/05/22 00:33:58;;;;;;;13.80;1.10;;;;;;;8.44;100.00;100098.64;104990;1264;69987;-47
2023/05/22 00:36:25;;;;;;;4.00;1.00;;;;;;;8.43;100.00;100100.45;105254;1258;72918;-48
2023/05/22 00:38:52;;;;;;;2.00;0.90;;;;;;;8.44;100.00;100102.20;105097;1260;64144;-45
2023/05/22 00:41:20;;;;;;;2.70;1.20;;;;;;;8.46;100.00;100102.69;105129;1257;62394;-48
2023/05/22 00:43:47;;;;;;;1.90;1.50;;;;;;;8.43;100.00;100096.52;105314;1258;71154;-48
2023/05/22 00:46:14;;;;;;;4.40;1.20;;;;;;;8.38;100.00;100096.16;105127;1262;67976;-48
2023/05/22 00:48:40;;;;;;;3.60;1.90;;;;;;;8.34;100.00;100096.83;104984;1259;71917;-48
2023/05/22 00:51:07;;;;;;;2.20;1.30;;;;;;;8.29;100.00;100094.82;105195;1258;60252;-48
2023/05/22 00:53:35;;;;;;;1.70;1.20;;;;;;;8.24;100.00;100100.35;105072;1257;60002;-48
2023/05/22 00:56:02;;;;;;;1.60;1.10;;;;;;;8.21;100.00;100099.03;106215;1265;74468;-48
2023/05/22 00:58:29;;;;;;;3.50;1.40;;;;;;;8.17;100.00;100100.41;104990;1258;68282;-46
2023/05/22 01:00:56;;;;;;;2.70;1.30;;;;;;;8.08;100.00;100099.45;105050;1257;74662;-46
2023/05/22 01:03:24;;;;;;;3.50;1.10;;;;;;;8.01;100.00;100101.10;104912;1260;61019;-47
2023/05/22 01:05:53;;;;;;;2.00;0.90;;;;;;;7.98;100.00;100103.36;105495;1258;62491;-47
2023/05/22 01:08:20;;;;;;;2.70;1.20;;;;;;;8.01;100.00;100106.13;105023;1257;73227;-48
2023/05/22 01:10:49;;;;;;;4.10;1.00;;;;;;;8.03;100.00;100100.33;105089;1258;69165;-48
2023/05/22 01:13:35;;;;;;;4.30;1.10;;;;;;;8.03;100.00;100098.90;104990;1261;71391;-47
2023/05/22 01:16:28;;;;;;;5.10;1.20;;;;;;;8.00;100.00;100095.27;105125;1257;62907;-46
2023/05/22 01:19:05;;;;;;;2.70;1.00;;;;;;;7.94;100.00;100093.45;105038;1257;61266;-46
2023/05/22 01:21:45;;;;;;;1.60;0.90;;;;;;;7.93;100.00;100095.81;105188;1257;72259;-48
2023/05/22 01:24:51;;;;;;;2.70;1.20;;;;;;;7.92;100.00;100090.29;105057;1258;69831;-47
2023/05/22 01:28:06;;;;;;;1.40;0.90;;;;;;;7.95;100.00;100092.36;106675;1259;70621;-47
2023/05/22 01:30:40;;;;;;;1.80;1.20;;;;;;;7.96;100.00;100088.59;104547;1265;63969;-45
2023/05/22 01:33:07;;;;;;;2.40;1.40;;;;;;;7.93;100.00;100086.34;105026;1257;59720;-48
2023/05/22 01:35:34;;;;;;;4.50;1.20;;;;;;;7.92;100.00;100086.55;104780;1257;72819;-47
2023/05/22 01:38:01;;;;;;;4.50;1.00;;;;;;;7.92;100.00;100082.09;104684;1258;70363;-48
2023/05/22 01:40:29;;;;;;;2.00;1.10;;;;;;;7.90;100.00;100079.86;105131;1258;73821;-48
2023/05/22 01:42:56;;;;;;;1.50;1.10;;;;;;;7.89;100.00;100082.02;104892;1257;61960;-47
2023/05/22 01:45:23;;;;;;;1.60;0.90;;;;;;;7.91;100.00;100081.39;105191;1258;59802;-48
2023/05/22 01:47:49;;;;;;;4.10;1.20;;;;;;;7.93;100.00;100080.09;104951;1257;75617;-45
2023/05/22 01:50:16;;;;;;;2.70;1.20;;;;;;;7.94;100.00;100080.42;106230;1259;69987;-45
2023/05/22 01:52:55;;;;;;;3.00;1.30;;;;;;;7.89;100.00;100077.36;105010;1265;75037;-45
2023/05/22 01:55:45;;;;;;;4.80;1.10;;;;;;;7.82;100.00;100078.48;104933;1261;60521;-47
2023/05/22 01:58:27;;;;;;;1.20;0.90;;;;;;;7.77;100.00;100077.56;104951;1259;62645;-47
2023/05/22 02:00:55;;;;;;;5.20;1.70;;;;;;;7.75;100.00;100078.33;108744;1257;74368;-46
2023/05/22 02:03:25;;;;;;;4.30;1.20;;;;;;;7.71;100.00;100076.70;108034;1261;69219;-46
2023/05/22 02:05:53;;;;;;;1.90;1.00;;;;;;;7.70;100.00;100076.73;106800;1261;74819;-45
2023/05/22 02:08:20;;;;;;;2.20;1.00;;;;;;;7.72;100.00;100077.05;108064;1259;64194;-46
2023/05/22 02:10:48;;;;;;;3.40;1.30;;;;;;;7.73;100.00;100080.40;104999;1256;60413;-45
2023/05/22 02:13:15;;;;;;;2.40;1.20;;;;;;;7.75;100.00;100080.11;104844;1256;72572;-45
2023/05/22 02:15:44;;;;;;;1.90;1.00;;;;;;;7.80;100.00;100081.77;105136;1256;68159;-45
2023/05/22 02:18:14;;;;;;;3.20;1.30;;;;;;;7.82;100.00;100078.86;107053;1257;72434;-46
2023/05/22 02:20:41;;;;;;;2.10;1.20;;;;;;;7.80;100.00;100085.16;108525;1256;64130;-48
2023/05/22 02:23:09;;;;;;;1.70;0.90;;;;;;;7.83;100.00;100089.36;104979;1256;60458;-46
2023/05/22 02:25:35;;;;;;;1.80;1.20;;;;;;;7.86;100.00;100091.05;104975;1256;75985;-46
2023/05/22 02:28:02;;;;;;;2.60;1.10;;;;;;;7.87;100.00;100097.27;105265;1257;68566;-46
2023/05/22 02:30:30;;;;;;;2.10;1.20;;;;;;;7.84;100.00;100098.09;108834;1256;74933;-47
2023/05/22 02:32:58;;;;;;;1.70;1.10;;;;;;;7.82;100.00;100094.06;106496;1263;62955;-46
2023/05/22 02:35:25;;;;;;;2.30;1.20;;;;;;;7.84;100.00;100091.46;107527;1256;62206;-46
2023/05/22 02:37:52;;;;;;;2.60;1.10;;;;;;;7.87;100.00;100090.13;105279;1260;73630;-46
2023/05/22 02:40:19;;;;;;;3.00;1.10;;;;;;;7.88;100.00;100087.77;105061;1262;69844;-46
2023/05/22 02:42:46;;;;;;;1.50;1.00;;;;;;;7.89;100.00;100088.27;105163;1256;72423;-46
2023/05/22 02:45:13;;;;;;;2.90;1.00;;;;;;;7.86;100.00;100087.13;104850;1257;62609;-44
2023/05/22 02:47:40;;;;;;;6.20;1.10;;;;;;;7.83;100.00;100085.44;105486;1258;62441;-46
2023/05/22 02:50:07;;;;;;;3.40;0.90;;;;;;;7.82;100.00;100085.64;105156;1259;74696;-46
2023/05/22 02:52:35;;;;;;;2.70;1.10;;;;;;;7.84;100.00;100089.67;104863;1266;67627;-45
2023/05/22 02:55:03;;;;;;;2.00;1.00;;;;;;;7.87;100.00;100094.06;104889;1262;73453;-46
2023/05/22 02:57:30;;;;;;;2.90;1.30;;;;;;;7.88;100.00;100095.63;105271;1264;64518;-46
2023/05/22 02:59:58;;;;;;;3.00;1.00;;;;;;;7.87;100.00;100098.69;105809;1262;60438;-46
2023/05/22 03:02:25;;;;;;;1.80;1.10;;;;;;;7.87;100.00;100094.06;105440;1263;73904;-46
2023/05/22 03:04:52;;;;;;;2.50;1.50;;;;;;;7.88;100.00;100093.30;104883;1262;68320;-47
2023/05/22 03:07:20;;;;;;;2.40;1.20;;;;;;;7.89;100.00;100097.05;104989;1260;73195;-47
2023/05/22 03:09:46;;;;;;;1.80;1.30;;;;;;;7.89;100.00;100095.23;105265;1262;62910;-47
2023/05/22 03:12:13;;;;;;;1.20;1.10;;;;;;;7.90;100.00;100098.42;104749;1258;60470;-46
2023/05/22 03:14:40;;;;;;;3.50;2.00;;;;;;;7.93;100.00;100099.02;104973;1257;76023;-47
2023/05/22 03:17:07;;;;;;;2.10;1.40;;;;;;;8.00;100.00;100097.75;104840;1256;67710;-47
2023/05/22 03:19:34;;;;;;;1.80;1.30;;;;;;;8.10;100.00;100096.70;104994;1262;74558;-47
2023/05/22 03:22:01;;;;;;;4.50;1.30;;;;;;;8.20;100.00;100091.73;105032;1259;62944;-47
2023/05/22 03:24:28;;;;;;;2.50;1.10;;;;;;;8.27;100.00;100095.22;105166;1258;62597;-46
2023/05/22 03:26:55;;;;;;;5.40;1.70;;;;;;;8.37;100.00;100095.11;105281;1258;76371;-45
2023/05/22 03:29:30;;;;;;;;;;;;;;;8.45;100.00;100098.05;105273;1257;68383;-47
2023/05/22 03:31:57;;;;;;;2.30;1.30;;;;;;;8.53;100.00;100100.80;105085;1259;74663;-46
2023/05/22 03:34:26;;;;;;;1.40;1.10;;;;;;;8.61;100.00;100100.17;105793;1259;62234;-44
2023/05/22 03:36:53;;;;;;;1.40;1.10;;;;;;;8.69;100.00;100102.04;105541;1258;62327;-44
2023/05/22 03:39:20;;;;;;;2.70;1.20;;;;;;;8.77;100.00;100101.59;105483;1259;72877;-46
2023/05/22 03:41:52;;;;;;;3.20;1.20;;;;;;;8.88;100.00;100101.91;105344;1257;68049;-47
2023/05/22 03:44:19;;;;;;;5.50;1.20;;;;;;;8.97;100.00;100099.44;105118;1264;75200;-45
2023/05/22 03:46:46;;;;;;;3.70;1.30;;;;;;;9.06;100.00;100100.90;105261;1259;61070;-47
2023/05/22 03:49:13;;;;;;;2.50;1.20;;;;;;;9.17;100.00;100104.27;105206;1263;60606;-45
2023/05/22 03:51:40;;;;;;;2.80;1.30;;;;;;;9.27;100.00;100102.63;105092;1264;76200;-45
2023/05/22 03:54:07;;;;;;;2.70;1.10;;;;;;;9.39;100.00;100104.33;105164;1257;67880;-47
2023/05/22 03:56:34;;;;;;;3.90;1.50;;;;;;;9.51;100.00;100105.83;104834;1264;71781;-47
2023/05/22 03:59:01;;;;;;;3.10;1.30;;;;;;;9.65;100.00;100103.85;104791;1260;62178;-46
2023/05/22 04:01:28;;;;;;;4.40;1.50;;;;;;;9.81;100.00;100106.10;104789;1264;61778;-45
2023/05/22 04:03:55;;;;;;;2.80;1.50;;;;;;;9.98;100.00;100107.58;104842;1264;73193;-47
2023/05/22 04:06:22;;;;;;;3.60;1.30;;;;;;;10.13;100.00;100103.91;105003;1259;66369;-44
2023/05/22 04:08:49;;;;;;;5.20;1.10;;;;;;;10.29;100.00;100096.09;104844;1263;71676;-46
2023/05/22 04:11:17;;;;;;;2.30;1.30;;;;;;;10.46;100.00;100096.80;104785;1263;62960;-45
2023/05/22 04:13:44;;;;;;;3.70;1.10;;;;;;;10.64;100.00;100099.64;104757;1259;61385;-44
2023/05/22 04:16:10;;;;;;;3.10;1.10;;;;;;;10.83;100.00;100100.23;104574;1259;74085;-46
2023/05/22 04:18:37;;;;;;;4.50;1.00;;;;;;;11.02;100.00;100103.86;104679;1264;70059;-46
2023/05/22 04:21:06;;;;;;;2.90;1.10;;;;;;;11.23;100.00;100108.67;104464;1259;74815;-46
2023/05/22 04:23:34;;;;;;;1.70;1.00;;;;;;;11.44;100.00;100111.48;105242;1259;62303;-47
2023/05/22 04:26:03;;;;;;;3.80;1.10;;;;;;;11.64;100.00;100113.40;104767;1259;61094;-46
2023/05/22 04:28:30;;;;;;;4.00;1.10;;;;;;;11.82;100.00;100112.44;104680;1263;74641;-47
2023/05/22 04:30:57;;;;;;;4.40;0.90;;;;;;;11.98;100.00;100112.15;104936;1262;67678;-47
2023/05/22 04:33:23;;;;;;;7.00;1.50;;;;;;;12.16;100.00;100113.45;104677;1259;73475;-46
2023/05/22 04:35:50;;;;;;;1.00;0.80;;;;;;;12.32;100.00;100109.98;104806;1259;62414;-46
2023/05/22 04:38:17;;;;;;;2.00;1.00;;;;;;;12.48;100.00;100110.02;104952;1259;61489;-46
2023/05/22 04:40:44;;;;;;;2.20;1.00;;;;;;;12.64;100.00;100106.20;106265;1259;74146;-45
2023/05/22 04:43:11;;;;;;;1.50;0.90;;;;;;;12.77;100.00;100106.38;104858;1257;68344;-44
2023/05/22 04:45:38;;;;;;;1.90;0.80;;;;;;;12.91;100.00;100109.80;104735;1263;72934;-46
2023/05/22 04:48:06;;;;;;;4.30;0.90;;;;;;;13.04;100.00;100108.98;104885;1261;61449;-46
2023/05/22 04:50:37;;;;;;;4.30;0.90;;;;;;;13.18;100.00;100108.95;108808;1256;62322;-48
2023/05/22 04:53:04;;;;;;;2.70;0.70;;;;;;;13.33;100.00;100106.36;108781;1256;74164;-49
2023/05/22 04:55:32;;;;;;;1.40;1.00;;;;;;;13.47;100.00;100107.55;108813;1256;67249;-48
2023/05/22 04:57:59;;;;;;;3.30;1.40;;;;;;;13.62;100.00;100113.98;108781;1257;73385;-49
2023/05/22 05:00:27;;;;;;;0.90;0.70;;;;;;;13.76;100.00;100114.42;108769;1256;58966;-48
2023/05/22 05:02:56;;;;;;;1.50;0.80;;;;;;;13.91;100.00;100114.45;108848;1256;60805;-49
2023/05/22 05:05:23;;;;;;;1.30;0.90;;;;;;;14.05;100.00;100118.56;106985;1256;75840;-47
2023/05/22 05:07:52;;;;;;;2.80;0.80;;;;;;;14.19;100.00;100121.17;108853;1256;69459;-49
2023/05/22 05:10:19;;;;;;;3.10;0.80;;;;;;;14.33;100.00;100119.45;108882;1256;72376;-48
2023/05/22 05:12:46;;;;;;;1.60;0.80;;;;;;;14.47;100.00;100114.35;106402;1262;60416;-47
2023/05/22 05:15:13;;;;;;;1.20;0.80;;;;;;;14.59;100.00;100116.16;105022;1262;61377;-46
2023/05/22 05:17:39;;;;;;;1.20;0.70;;;;;;;14.71;100.00;100117.08;108718;1256;73250;-47
2023/05/22 05:20:07;;;;;;;5.20;0.80;;;;;;;14.84;100.00;100111.63;108670;1256;68257;-47
2023/05/22 05:22:34;;;;;;;5.90;0.70;;;;;;;14.95;100.00;100120.12;108741;1261;72077;-47
2023/05/22 05:25:04;;;;;;;1.30;0.80;;;;;;;15.08;100.00;100122.62;108897;1256;61328;-48
2023/05/22 05:27:31;;;;;;;3.50;0.70;;;;;;;15.19;100.00;100125.00;108686;1256;61786;-48
2023/05/22 05:29:58;;;;;;;3.70;0.70;;;;;;;15.30;100.00;100127.76;108698;1257;75991;-47
2023/05/22 05:32:35;;;;;;;1.60;0.60;;;;;;;15.43;100.00;100125.71;108806;1256;68565;-49
2023/05/22 05:35:19;;;;;;;6.30;0.90;;;;;;;15.53;100.00;100128.14;107616;1258;74248;-47
2023/05/22 05:38:00;;;;;;;2.70;0.70;;;;;;;15.64;100.00;100129.48;105090;1262;60856;-47
2023/05/22 05:40:27;;;;;;;2.10;0.60;;;;;;;15.74;100.00;100126.44;105082;1256;62469;-45
2023/05/22 05:42:55;;;;;;;1.30;0.70;;;;;;;15.83;100.00;100125.33;105153;1263;74275;-46
2023/05/22 05:45:24;;;;;;;1.90;0.60;;;;;;;15.92;100.00;100128.02;104932;1264;68885;-46
2023/05/22 05:47:52;;;;;;;2.30;0.60;;;;;;;16.02;100.00;100127.39;105130;1263;73038;-48
2023/05/22 05:50:19;;;;;;;2.80;0.50;;;;;;;16.11;100.00;100126.05;105282;1259;60460;-47
2023/05/22 05:52:46;;;;;;;3.90;0.60;;;;;;;16.20;100.00;100126.36;105193;1256;60466;-46
2023/05/22 05:55:15;;;;;;;4.90;0.50;;;;;;;16.29;100.00;100125.94;105160;1257;76048;-48
2023/05/22 05:57:42;;;;;;;1.20;0.60;;;;;;;16.40;100.00;100125.08;105153;1256;69112;-47
2023/05/22 06:00:14;;;;;;;2.70;0.60;;;;;;;16.48;100.00;100120.86;105046;1263;74827;-48
2023/05/22 06:02:42;;;;;;;1.10;0.50;;;;;;;16.54;100.00;100124.77;105130;1259;60574;-48
2023/05/22 06:05:28;;;;;;;2.10;0.70;;;;;;;16.61;100.00;100127.63;105324;1260;61286;-48
2023/05/22 06:08:04;;;;;;;1.10;0.60;;;;;;;16.66;100.00;100124.59;105350;1262;73745;-48
2023/05/22 06:10:31;;;;;;;0.90;0.50;;;;;;;16.73;100.00;100127.20;105224;1264;69455;-49
2023/05/22 06:13:11;;;;;;;2.30;0.60;;;;;;;16.80;100.00;100129.63;105056;1256;74222;-47
2023/05/22 06:15:39;;;;;;;3.00;0.60;;;;;;;16.84;100.00;100126.77;105551;1259;60482;-49
2023/05/22 06:18:06;;;;;;;2.70;0.60;;;;;;;16.90;100.00;100129.48;105240;1257;60171;-49
2023/05/22 06:20:33;;;;;;;0.80;0.60;;;;;;;16.96;100.00;100128.33;105170;1263;76766;-48
2023/05/22 06:23:00;;;;;;;1.20;0.50;;;;;;;17.02;100.00;100126.29;105346;1257;70294;-47
2023/05/22 06:25:28;;;;;;;3.20;0.50;;;;;;;17.08;100.00;100127.48;105001;1262;72123;-50
2023/05/22 06:27:56;;;;;;;1.60;0.50;;;;;;;17.14;100.00;100127.30;104991;1262;60952;-48
2023/05/22 06:30:23;;;;;;;1.60;0.80;;;;;;;17.18;100.00;100122.50;105019;1256;61223;-48
2023/05/22 06:33:13;;;;;;;1.40;0.60;;;;;;;17.23;100.00;100117.77;105027;1263;72781;-49
2023/05/22 06:35:40;;;;;;;2.00;0.70;;;;;;;17.28;100.00;100119.23;105146;1262;69120;-47
2023/05/22 06:38:07;;;;;;;3.10;0.80;;;;;;;17.31;100.00;100114.80;104994;1256;72335;-48
2023/05/22 06:40:36;;;;;;;1.60;0.50;;;;;;;17.36;100.00;100117.36;105039;1256;60715;-50
2023/05/22 06:43:14;;;;;;;0.70;0.60;;;;;;;17.45;100.00;100117.46;105053;1257;61005;-48
2023/05/22 06:45:49;;;;;;;1.70;0.80;;;;;;;17.54;100.00;100116.07;105213;1256;76110;-49
2023/05/22 06:48:16;;;;;;;0.70;0.60;;;;;;;17.63;100.00;100115.09;105116;1262;68390;-47
2023/05/22 06:50:56;;;;;;;2.40;0.80;;;;;;;17.71;100.00;100113.77;104888;1262;72891;-51
2023/05/22 06:53:24;;;;;;;1.60;0.70;;;;;;;17.80;100.00;100111.71;105014;1259;60367;-48
2023/05/22 06:55:51;;;;;;;1.80;0.40;;;;;;;17.86;100.00;100110.73;105285;1256;61392;-49
2023/05/22 06:58:26;;;;;;;3.70;0.50;;;;;;;17.92;100.00;100112.78;104979;1256;75486;-49
2023/05/22 07:00:54;;;;;;;1.00;0.60;;;;;;;18.00;100.00;100109.90;104854;1260;69110;-49
2023/05/22 07:03:29;;;;;;;1.90;0.60;;;;;;;18.08;100.00;100112.92;105444;1259;71419;-49
2023/05/22 07:06:27;;;;;;;1.10;0.60;;;;;;;18.16;100.00;100109.41;105096;1256;61108;-49
2023/05/22 07:08:54;;;;;;;1.40;0.50;;;;;;;18.25;100.00;100110.56;104997;1256;61916;-49
2023/05/22 07:11:21;;;;;;;3.00;0.60;;;;;;;18.34;100.00;100110.04;104985;1259;72593;-49
2023/05/22 07:13:49;;;;;;;1.30;0.70;;;;;;;18.40;100.00;100106.70;105102;1256;68651;-49
2023/05/22 07:16:16;;;;;;;1.60;0.50;;;;;;;18.46;100.00;100108.39;104935;1264;73516;-49
2023/05/22 07:18:44;;;;;;;1.30;0.50;;;;;;;18.52;100.00;100106.73;105230;1262;60770;-50
2023/05/22 07:21:11;;;;;;;1.60;0.50;;;;;;;18.56;100.00;100102.93;105182;1264;60441;-49
2023/05/22 07:23:40;;;;;;;0.70;0.60;;;;;;;18.63;100.00;100107.58;105177;1258;73931;-48
2023/05/22 07:26:06;;;;;;;2.70;0.60;;;;;;;18.69;100.00;100106.49;105099;1262;68244;-48
2023/05/22 07:28:35;;;;;;;2.00;0.50;;;;;;;18.76;100.00;100107.45;105351;1257;73886;-48
2023/05/22 07:31:07;;;;;;;0.80;0.40;;;;;;;18.81;100.00;100110.13;105772;1263;62689;-48
2023/05/22 07:33:34;;;;;;;7.30;1.30;;;;;;;18.82;100.00;100104.80;105020;1257;60717;-48
2023/05/22 07:36:01;;;;;;;3.30;0.60;;;;;;;18.86;100.00;100099.25;104970;1257;75743;-50
2023/05/22 07:38:31;;;;;;;0.90;0.40;;;;;;;18.90;100.00;100099.25;105188;1256;70199;-48
2023/05/22 07:41:01;;;;;;;2.20;0.40;;;;;;;18.95;100.00;100100.75;105513;1262;73144;-47
2023/05/22 07:43:29;;;;;;;0.70;0.40;;;;;;;18.99;100.00;100099.11;105824;1257;61719;-49
2023/05/22 07:45:56;;;;;;;4.00;0.50;;;;;;;19.06;100.00;100101.08;105103;1256;62368;-49
2023/05/22 07:48:25;;;;;;;3.20;0.40;;;;;;;19.12;100.00;100094.31;104992;1257;73176;-49
2023/05/22 07:50:53;;;;;;;0.80;0.30;;;;;;;19.16;100.00;100092.64;105136;1256;68528;-50
2023/05/22 07:53:20;;;;;;;0.40;0.30;;;;;;;19.24;100.00;100095.51;108744;1259;73650;-51
2023/05/22 07:55:49;;;;;;;1.80;0.40;;;;;;;19.36;100.00;100096.73;108764;1257;61440;-50
2023/05/22 07:58:16;;;;;;;2.90;0.50;;;;;;;19.50;100.00;100094.21;108707;1256;59877;-49
2023/05/22 08:00:43;;;;;;;4.20;0.50;;;;;;;19.60;100.00;100093.53;108733;1256;73865;-49
2023/05/22 08:03:10;;;;;;;2.90;0.40;;;;;;;19.71;100.00;100088.35;105136;1262;68364;-49
2023/05/22 08:05:38;;;;;;;3.00;0.50;;;;;;;19.80;100.00;100084.88;108708;1256;73168;-49
2023/05/22 08:08:04;;;;;;;5.60;0.40;;;;;;;19.87;100.00;100081.17;108733;1256;61350;-49
2023/05/22 08:10:31;;;;;;;2.00;0.30;;;;;;;19.95;100.00;100085.98;105780;1256;60432;-49
2023/05/22 08:13:14;;;;;;;0.50;0.30;;;;;;;20.01;100.00;100087.83;105156;1256;74101;-49
2023/05/22 08:15:41;;;;;;;1.30;0.40;;;;;;;20.06;100.00;100084.70;105322;1256;67060;-48
2023/05/22 08:18:08;;;;;;;1.80;0.40;;;;;;;20.07;100.00;100083.90;104955;1256;73954;-50
2023/05/22 08:20:36;;;;;;;1.00;0.30;;;;;;;20.07;100.00;100081.60;104970;1256;61530;-50
2023/05/22 08:23:04;;;;;;;1.10;0.40;;;;;;;20.05;100.00;100080.60;108666;1256;59968;-50
2023/05/22 08:25:31;;;;;;;0.40;0.30;;;;;;;20.06;100.00;100083.85;108873;1256;76226;-49
2023/05/22 08:27:57;;;;;;;0.40;0.40;;;;;;;20.11;100.00;100089.58;108732;1262;67846;-50
2023/05/22 08:30:24;;;;;;;2.50;0.30;;;;;;;20.19;100.00;100074.88;108731;1256;72609;-49
2023/05/22 08:32:51;;;;;;;1.80;0.40;;;;;;;20.28;100.00;100077.05;108742;1256;58808;-49
2023/05/22 08:35:18;;;;;;;2.00;0.40;;;;;;;20.35;100.00;100078.98;108859;1256;60636;-50
2023/05/22 08:37:45;;;;;;;0.90;0.50;;;;;;;20.40;100.00;100086.98;105797;1257;73594;-49
2023/05/22 08:40:12;;;;;;;0.40;0.30;;;;;;;20.45;100.00;100086.20;105099;1263;69986;-49
2023/05/22 08:42:39;;;;;;;0.50;0.40;;;;;;;20.46;100.00;100080.30;105004;1257;72621;-49
2023/05/22 08:45:06;;;;;;;2.50;0.40;;;;;;;20.44;100.00;100079.42;105069;1259;60540;-49
2023/05/22 08:47:35;;;;;;;4.40;0.40;;;;;;;20.38;100.00;100078.77;105329;1257;60918;-48
2023/05/22 08:50:03;;;;;;;2.80;0.30;;;;;;;20.37;100.00;100079.59;106329;1263;72506;-48
2023/05/22 08:52:36;;;;;;;0.90;0.40;;;;;;;20.38;100.00;100078.58;105295;1256;67004;-49
2023/05/22 08:55:07;;;;;;;1.60;0.40;;;;;;;20.41;100.00;100076.94;104937;1256;75139;-49
2023/05/22 08:57:34;;;;;;;0.60;0.40;;;;;;;20.48;100.00;100081.98;104863;1260;60496;-49
2023/05/22 09:00:02;;;;;;;2.00;0.30;;;;;;;20.58;100.00;100079.63;105052;1262;61203;-49
2023/05/22 09:02:30;;;;;;;1.00;0.50;;;;;;;20.65;100.00;100076.67;104935;1262;75558;-48
2023/05/22 09:04:57;;;;;;;0.70;0.30;;;;;;;20.72;100.00;100072.65;108798;1257;69964;-49
2023/05/22 09:07:26;;;;;;;0.40;0.40;;;;;;;20.79;100.00;100069.08;106147;1260;75291;-48
2023/05/22 09:09:53;;;;;;;0.40;0.30;;;;;;;20.85;100.00;100067.11;105428;1264;61915;-47
2023/05/22 09:12:20;;;;;;;0.60;0.30;;;;;;;20.93;100.00;100064.39;105001;1259;61349;-46
2023/05/22 09:14:47;;;;;;;0.70;0.40;;;;;;;21.03;100.00;100071.23;104890;1259;73942;-48
2023/05/22 09:17:14;;;;;;;4.40;0.20;;;;;;;21.12;100.00;100070.38;104963;1256;70577;-48
2023/05/22 09:19:47;;;;;;;0.30;0.30;;;;;;;21.20;100.00;100071.42;105605;1263;74430;-47
2023/05/22 09:22:13;;;;;;;0.50;0.50;;;;;;;21.24;100.00;100065.62;105386;1264;61539;-48
2023/05/22 09:24:41;;;;;;;5.20;0.50;;;;;;;21.26;100.00;100064.67;105083;1259;60620;-46
2023/05/22 09:27:08;;;;;;;3.00;0.40;;;;;;;21.30;100.00;100064.10;104841;1262;74194;-47
2023/05/22 09:29:50;;;;;;;0.60;0.30;;;;;;;21.33;100.00;100067.90;105065;1257;68005;-48
2023/05/22 09:32:17;;;;;;;0.60;0.30;;;;;;;21.33;100.00;100067.19;104959;1265;74507;-48
2023/05/22 09:34:47;;;;;;;2.00;0.30;;;;;;;21.30;100.00;100064.13;104979;1256;60468;-50
2023/05/22 09:37:15;;;;;;;1.40;0.40;;;;;;;21.24;100.00;100060.84;105014;1259;60625;-45
2023/05/22 09:39:46;;;;;;;0.80;0.30;;;;;;;21.18;100.00;100052.58;105750;1256;75960;-46
2023/05/22 09:42:16;;;;;;;1.00;0.40;;;;;;;21.12;100.00;100046.88;106027;1256;67657;-49
2023/05/22 09:44:47;;;;;;;0.50;0.30;;;;;;;21.08;100.00;100045.59;105891;1261;73068;-49
2023/05/22 09:47:14;;;;;;;0.40;0.30;;;;;;;21.03;100.00;100040.36;105599;1262;62210;-47
2023/05/22 09:49:42;;;;;;;2.80;0.40;;;;;;;20.99;100.00;100041.21;105229;1262;61650;-46
2023/05/22 09:52:11;;;;;;;3.30;0.40;;;;;;;20.96;100.00;100034.07;105214;1265;74386;-50
2023/05/22 09:54:47;;;;;;;2.60;0.30;;;;;;;20.99;100.00;100031.39;105242;1263;67048;-49
2023/05/22 09:57:15;;;;;;;0.50;0.30;;;;;;;21.06;100.00;100031.13;106385;1259;72640;-47
2023/05/22 10:01:38;;;;;;;0.70;0.40;;;;;;;21.19;100.00;100034.23;102414;1290;600153;-46
2023/05/22 10:04:06;;;;;;;0.60;0.40;;;;;;;21.15;100.00;100030.21;105237;1270;62171;-48
2023/05/22 10:06:34;;;;;;;2.50;0.40;;;;;;;21.06;100.00;100030.02;104606;1273;59629;-49
2023/05/22 10:09:03;;;;;;;1.50;0.30;;;;;;;21.00;100.00;100023.09;104537;1268;71372;-48
2023/05/22 10:11:30;;;;;;;1.10;0.40;;;;;;;21.03;100.00;100017.69;104600;1268;70031;-49
2023/05/22 10:13:59;;;;;;;2.60;0.40;;;;;;;21.11;100.00;100017.96;104338;1270;74171;-48
2023/05/22 10:16:26;;;;;;;3.10;0.30;;;;;;;21.12;100.00;100015.85;104607;1265;212776;-47
2023/05/22 10:18:54;;;;;;;0.60;0.30;;;;;;;21.05;100.00;100013.89;104559;1270;59373;-50
2023/05/22 10:21:20;;;;;;;0.60;0.30;;;;;;;20.99;100.00;100008.96;106570;1265;74498;-49
2023/05/22 10:23:48;;;;;;;3.40;0.30;;;;;;;20.97;100.00;100004.82;104665;1264;67204;-48
2023/05/22 10:26:15;;;;;;;3.90;0.30;;;;;;;21.01;100.00;100007.18;108131;1263;73025;-49
2023/05/22 10:28:45;;;;;;;2.10;0.40;;;;;;;21.10;100.00;100001.25;104448;1271;61833;-49
2023/05/22 10:31:33;;;;;;;1.10;0.30;;;;;;;21.21;100.00;99999.79;107161;1263;59457;-48
2023/05/22 10:34:23;;;;;;;3.80;0.50;;;;;;;21.25;100.00;99998.84;104601;1269;72974;-48
2023/05/22 10:37:04;;;;;;;0.90;0.30;;;;;;;21.24;100.00;99995.66;105411;1268;67849;-49
2023/05/22 10:39:53;;;;;;;0.50;0.30;;;;;;;21.27;100.00;99993.73;104641;1265;74864;-49
2023/05/22 10:42:20;;;;;;;1.70;0.30;;;;;;;21.34;100.00;99990.40;104926;1266;59684;-50
2023/05/22 10:44:47;;;;;;;0.80;0.40;;;;;;;21.43;100.00;99985.38;105026;1264;60408;-49
2023/05/22 10:47:14;;;;;;;0.80;0.40;;;;;;;21.54;100.00;99982.56;108715;1262;74239;-48
2023/05/22 10:49:45;;;;;;;1.50;0.30;;;;;;;21.63;100.00;99983.77;105378;1262;70242;-47
2023/05/22 10:52:17;;;;;;;0.50;0.30;;;;;;;21.72;100.00;99974.20;108597;1262;72494;-48
2023/05/22 10:54:44;;;;;;;2.80;0.30;;;;;;;21.76;100.00;99967.77;108619;1261;60330;-49
2023/05/22 10:57:15;;;;;;;0.40;0.30;;;;;;;21.83;100.00;99971.67;108529;1260;62220;-49
2023/05/22 10:59:42;;;;;;;0.50;0.30;;;;;;;21.92;100.00;99970.00;108525;1262;74216;-49
2023/05/22 11:02:29;;;;;;;2.50;0.40;;;;;;;21.96;100.00;99964.10;108481;1261;68051;-50
2023/05/22 11:05:20;;;;;;;10.30;0.40;;;;;;;22.02;100.00;99967.80;108530;1261;73882;-50
2023/05/22 11:07:47;;;;;;;0.60;0.30;;;;;;;22.04;100.00;99960.79;107991;1264;60823;-47
2023/05/22 11:10:24;;;;;;;0.60;0.40;;;;;;;22.07;100.00;99962.59;108567;1260;62602;-49
2023/05/22 11:13:10;;;;;;;0.70;0.40;;;;;;;22.13;100.00;99956.33;108393;1261;73959;-49
2023/05/22 11:15:39;;;;;;;0.70;0.30;;;;;;;22.19;100.00;99950.39;108485;1262;68230;-49
2023/05/22 11:18:06;;;;;;;0.60;0.40;;;;;;;22.30;100.00;99951.84;108376;1262;72972;-49
2023/05/22 11:20:35;;;;;;;0.90;0.30;;;;;;;22.41;100.00;99955.54;108425;1260;59086;-50
2023/05/22 11:23:06;;;;;;;0.20;0.20;;;;;;;22.46;100.00;99948.80;108567;1262;59182;-49
2023/05/22 11:25:35;;;;;;;0.40;0.30;;;;;;;22.44;100.00;99945.52;108679;1261;71118;-49